sensor_id;sensor_type;location;lat;lon;timestamp;temperature;humidity
13817;DHT22;6979;52.116;5.286;2023-07-13T00:02:23;21.60;99.90
13817;DHT22;6979;52.116;5.286;2023-07-13T00:04:50;21.60;99.90
13817;DHT22;6979;52.116;5.286;2023-07-13T00:07:18;21.60;99.90
13817;DHT22;6979;52.116;5.286;2023-07-13T00:09:45;21.60;99.90
13817;DHT22;6979;52.116;5.286;2023-07-13T00:12:24;21.50;99.90
13817;DHT22;6979;52.116;5.286;2023-07-13T00:14:51;21.50;99.90
13817;DHT22;6979;52.116;5.286;2023-07-13T00:17:18;21.50;99.90
13817;DHT22;6979;52.116;5.286;2023-07-13T00:19:47;21.50;99.90
13817;DHT22;6979;52.116;5.286;2023-07-13T00:22:14;21.50;99.90
13817;DHT22;6979;52.116;5.286;2023-07-13T00:24:41;21.40;99.90
13817;DHT22;6979;52.116;5.286;2023-07-13T00:27:08;21.40;99.90
13817;DHT22;6979;52.116;5.286;2023-07-13T00:29:37;21.40;99.90
13817;DHT22;6979;52.116;5.286;2023-07-13T00:32:08;21.30;99.90
13817;DHT22;6979;52.116;5.286;2023-07-13T00:34:37;21.30;99.90
13817;DHT22;6979;52.116;5.286;2023-07-13T00:37:07;21.30;99.90
13817;DHT22;6979;52.116;5.286;2023-07-13T00:39:35;21.20;99.90
13817;DHT22;6979;52.116;5.286;2023-07-13T00:42:03;21.20;99.90
13817;DHT22;6979;52.116;5.286;2023-07-13T00:44:30;21.10;99.90
13817;DHT22;6979;52.116;5.286;2023-07-13T00:46:58;21.10;99.90
13817;DHT22;6979;52.116;5.286;2023-07-13T00:49:27;21.00;99.90
13817;DHT22;6979;52.116;5.286;2023-07-13T00:51:57;21.00;99.90
13817;DHT22;6979;52.116;5.286;2023-07-13T00:54:29;21.00;99.90
13817;DHT22;6979;52.116;5.286;2023-07-13T00:57:01;20.90;99.90
13817;DHT22;6979;52.116;5.286;2023-07-13T00:59:30;20.90;99.90
13817;DHT22;6979;52.116;5.286;2023-07-13T01:01:58;20.80;99.90
13817;DHT22;6979;52.116;5.286;2023-07-13T01:04:27;20.80;99.90
13817;DHT22;6979;52.116;5.286;2023-07-13T01:06:55;20.70;99.90
13817;DHT22;6979;52.116;5.286;2023-07-13T01:09:22;20.70;99.90
13817;DHT22;6979;52.116;5.286;2023-07-13T01:11:51;20.60;99.90
13817;DHT22;6979;52.116;5.286;2023-07-13T01:14:18;20.60;99.90
13817;DHT22;6979;52.116;5.286;2023-07-13T01:16:46;20.60;99.90
13817;DHT22;6979;52.116;5.286;2023-07-13T01:19:25;20.50;99.90
13817;DHT22;6979;52.116;5.286;2023-07-13T01:22:03;20.50;99.90
13817;DHT22;6979;52.116;5.286;2023-07-13T01:24:35;20.50;99.90
13817;DHT22;6979;52.116;5.286;2023-07-13T01:27:03;20.40;99.90
13817;DHT22;6979;52.116;5.286;2023-07-13T01:29:34;20.40;99.90
13817;DHT22;6979;52.116;5.286;2023-07-13T01:32:08;20.40;99.90
13817;DHT22;6979;52.116;5.286;2023-07-13T01:34:38;20.40;99.90
13817;DHT22;6979;52.116;5.286;2023-07-13T01:37:09;20.30;99.90
13817;DHT22;6979;52.116;5.286;2023-07-13T01:39:37;20.30;99.90
13817;DHT22;6979;52.116;5.286;2023-07-13T01:42:05;20.30;99.90
13817;DHT22;6979;52.116;5.286;2023-07-13T01:44:32;20.20;99.90
13817;DHT22;6979;52.116;5.286;2023-07-13T01:47:00;20.20;99.90
13817;DHT22;6979;52.116;5.286;2023-07-13T01:49:27;20.20;99.90
13817;DHT22;6979;52.116;5.286;2023-07-13T01:51:54;20.20;99.90
13817;DHT22;6979;52.116;5.286;2023-07-13T01:54:23;20.10;99.90
13817;DHT22;6979;52.116;5.286;2023-07-13T01:56:50;20.10;99.90
13817;DHT22;6979;52.116;5.286;2023-07-13T01:59:17;20.10;99.90
13817;DHT22;6979;52.116;5.286;2023-07-13T02:01:44;20.10;99.90
13817;DHT22;6979;52.116;5.286;2023-07-13T02:04:11;20.00;99.90
13817;DHT22;6979;52.116;5.286;2023-07-13T02:06:38;20.00;99.90
13817;DHT22;6979;52.116;5.286;2023-07-13T02:09:06;20.00;99.90
13817;DHT22;6979;52.116;5.286;2023-07-13T02:11:34;20.00;99.90
13817;DHT22;6979;52.116;5.286;2023-07-13T02:14:03;20.00;99.90
13817;DHT22;6979;52.116;5.286;2023-07-13T02:16:31;19.90;99.90
13817;DHT22;6979;52.116;5.286;2023-07-13T02:18:58;19.80;99.90
13817;DHT22;6979;52.116;5.286;2023-07-13T02:21:26;19.80;99.90
13817;DHT22;6979;52.116;5.286;2023-07-13T02:23:54;19.80;99.90
13817;DHT22;6979;52.116;5.286;2023-07-13T02:26:21;19.70;99.90
13817;DHT22;6979;52.116;5.286;2023-07-13T02:28:49;19.70;99.90
13817;DHT22;6979;52.116;5.286;2023-07-13T02:31:19;19.60;99.90
13817;DHT22;6979;52.116;5.286;2023-07-13T02:33:46;19.60;99.90
13817;DHT22;6979;52.116;5.286;2023-07-13T02:36:14;19.60;99.90
13817;DHT22;6979;52.116;5.286;2023-07-13T02:38:44;19.50;99.90
13817;DHT22;6979;52.116;5.286;2023-07-13T02:41:11;19.50;99.90
13817;DHT22;6979;52.116;5.286;2023-07-13T02:43:40;19.50;99.90
13817;DHT22;6979;52.116;5.286;2023-07-13T02:46:10;19.40;99.90
13817;DHT22;6979;52.116;5.286;2023-07-13T02:48:38;19.40;99.90
13817;DHT22;6979;52.116;5.286;2023-07-13T02:51:06;19.40;99.90
13817;DHT22;6979;52.116;5.286;2023-07-13T02:53:34;19.40;99.90
13817;DHT22;6979;52.116;5.286;2023-07-13T02:56:01;19.30;99.90
13817;DHT22;6979;52.116;5.286;2023-07-13T02:58:28;19.30;99.90
13817;DHT22;6979;52.116;5.286;2023-07-13T03:00:56;19.30;99.90
13817;DHT22;6979;52.116;5.286;2023-07-13T03:03:25;19.30;99.90
13817;DHT22;6979;52.116;5.286;2023-07-13T03:05:59;19.30;99.90
13817;DHT22;6979;52.116;5.286;2023-07-13T03:08:33;19.30;99.90
13817;DHT22;6979;52.116;5.286;2023-07-13T03:11:00;19.30;99.90
13817;DHT22;6979;52.116;5.286;2023-07-13T03:13:31;19.20;99.90
13817;DHT22;6979;52.116;5.286;2023-07-13T03:15:58;19.30;99.90
13817;DHT22;6979;52.116;5.286;2023-07-13T03:18:28;19.20;99.90
13817;DHT22;6979;52.116;5.286;2023-07-13T03:20:59;19.20;99.90
13817;DHT22;6979;52.116;5.286;2023-07-13T03:23:26;19.20;99.90
13817;DHT22;6979;52.116;5.286;2023-07-13T03:26:02;19.20;99.90
13817;DHT22;6979;52.116;5.286;2023-07-13T03:28:30;19.20;99.90
13817;DHT22;6979;52.116;5.286;2023-07-13T03:31:02;19.20;99.90
13817;DHT22;6979;52.116;5.286;2023-07-13T03:33:33;19.20;99.90
13817;DHT22;6979;52.116;5.286;2023-07-13T03:36:02;19.20;99.90
13817;DHT22;6979;52.116;5.286;2023-07-13T03:38:31;19.20;99.90
13817;DHT22;6979;52.116;5.286;2023-07-13T03:41:01;19.20;99.90
13817;DHT22;6979;52.116;5.286;2023-07-13T03:43:29;19.20;99.90
13817;DHT22;6979;52.116;5.286;2023-07-13T03:45:56;19.10;99.90
13817;DHT22;6979;52.116;5.286;2023-07-13T03:48:24;19.20;99.90
13817;DHT22;6979;52.116;5.286;2023-07-13T03:50:52;19.10;99.90
13817;DHT22;6979;52.116;5.286;2023-07-13T03:53:19;19.10;99.90
13817;DHT22;6979;52.116;5.286;2023-07-13T03:55:47;19.10;99.90
13817;DHT22;6979;52.116;5.286;2023-07-13T03:58:28;19.10;99.90
13817;DHT22;6979;52.116;5.286;2023-07-13T04:01:02;19.00;99.90
13817;DHT22;6979;52.116;5.286;2023-07-13T04:03:31;19.00;99.90
13817;DHT22;6979;52.116;5.286;2023-07-13T04:06:01;19.10;99.90
13817;DHT22;6979;52.116;5.286;2023-07-13T04:08:30;19.00;99.90
13817;DHT22;6979;52.116;5.286;2023-07-13T04:11:00;19.00;99.90
13817;DHT22;6979;52.116;5.286;2023-07-13T04:13:27;19.00;99.90
13817;DHT22;6979;52.116;5.286;2023-07-13T04:15:54;19.00;99.90
13817;DHT22;6979;52.116;5.286;2023-07-13T04:18:22;19.00;99.90
13817;DHT22;6979;52.116;5.286;2023-07-13T04:20:50;19.00;99.90
13817;DHT22;6979;52.116;5.286;2023-07-13T04:23:18;19.00;99.90
13817;DHT22;6979;52.116;5.286;2023-07-13T04:25:46;19.00;99.90
13817;DHT22;6979;52.116;5.286;2023-07-13T04:28:15;19.00;99.90
13817;DHT22;6979;52.116;5.286;2023-07-13T04:30:43;19.00;99.90
13817;DHT22;6979;52.116;5.286;2023-07-13T04:33:10;19.00;99.90
13817;DHT22;6979;52.116;5.286;2023-07-13T04:35:39;19.10;99.90
13817;DHT22;6979;52.116;5.286;2023-07-13T04:38:06;19.00;99.90
13817;DHT22;6979;52.116;5.286;2023-07-13T04:40:34;19.10;99.90
13817;DHT22;6979;52.116;5.286;2023-07-13T04:43:01;19.10;99.90
13817;DHT22;6979;52.116;5.286;2023-07-13T04:45:29;19.10;99.90
13817;DHT22;6979;52.116;5.286;2023-07-13T04:47:57;19.10;99.90
13817;DHT22;6979;52.116;5.286;2023-07-13T04:50:24;19.10;99.90
13817;DHT22;6979;52.116;5.286;2023-07-13T04:52:51;19.10;99.90
13817;DHT22;6979;52.116;5.286;2023-07-13T04:55:19;19.10;99.90
13817;DHT22;6979;52.116;5.286;2023-07-13T04:57:48;19.20;99.90
13817;DHT22;6979;52.116;5.286;2023-07-13T05:00:15;19.20;99.90
13817;DHT22;6979;52.116;5.286;2023-07-13T05:02:44;19.20;99.90
13817;DHT22;6979;52.116;5.286;2023-07-13T05:05:16;19.20;99.90
13817;DHT22;6979;52.116;5.286;2023-07-13T05:07:45;19.30;99.90
13817;DHT22;6979;52.116;5.286;2023-07-13T05:10:13;19.30;99.90
13817;DHT22;6979;52.116;5.286;2023-07-13T05:12:40;19.30;99.90
13817;DHT22;6979;52.116;5.286;2023-07-13T05:15:09;19.40;99.90
13817;DHT22;6979;52.116;5.286;2023-07-13T05:17:36;19.40;99.90
13817;DHT22;6979;52.116;5.286;2023-07-13T05:20:05;19.40;99.90
13817;DHT22;6979;52.116;5.286;2023-07-13T05:22:32;19.50;99.90
13817;DHT22;6979;52.116;5.286;2023-07-13T05:25:01;19.60;99.90
13817;DHT22;6979;52.116;5.286;2023-07-13T05:27:28;19.60;99.90
13817;DHT22;6979;52.116;5.286;2023-07-13T05:29:55;19.70;99.90
13817;DHT22;6979;52.116;5.286;2023-07-13T05:32:24;19.80;99.90
13817;DHT22;6979;52.116;5.286;2023-07-13T05:34:57;19.80;99.90
13817;DHT22;6979;52.116;5.286;2023-07-13T05:37:24;19.80;99.90
13817;DHT22;6979;52.116;5.286;2023-07-13T05:39:51;19.90;99.90
13817;DHT22;6979;52.116;5.286;2023-07-13T05:42:19;19.90;99.90
13817;DHT22;6979;52.116;5.286;2023-07-13T05:44:46;20.00;99.90
13817;DHT22;6979;52.116;5.286;2023-07-13T05:47:13;20.10;99.90
13817;DHT22;6979;52.116;5.286;2023-07-13T05:49:42;20.10;99.90
13817;DHT22;6979;52.116;5.286;2023-07-13T05:52:09;20.20;99.90
13817;DHT22;6979;52.116;5.286;2023-07-13T05:54:36;20.20;99.90
13817;DHT22;6979;52.116;5.286;2023-07-13T05:57:03;20.30;99.90
13817;DHT22;6979;52.116;5.286;2023-07-13T05:59:30;20.40;99.90
13817;DHT22;6979;52.116;5.286;2023-07-13T06:01:57;20.40;99.90
13817;DHT22;6979;52.116;5.286;2023-07-13T06:04:24;20.50;99.90
13817;DHT22;6979;52.116;5.286;2023-07-13T06:06:53;20.60;99.90
13817;DHT22;6979;52.116;5.286;2023-07-13T06:09:20;20.60;99.90
13817;DHT22;6979;52.116;5.286;2023-07-13T06:11:47;20.70;99.90
13817;DHT22;6979;52.116;5.286;2023-07-13T06:14:14;20.70;99.90
13817;DHT22;6979;52.116;5.286;2023-07-13T06:16:41;20.80;99.90
13817;DHT22;6979;52.116;5.286;2023-07-13T06:19:08;20.90;99.90
13817;DHT22;6979;52.116;5.286;2023-07-13T06:21:35;20.90;99.90
13817;DHT22;6979;52.116;5.286;2023-07-13T06:24:04;21.00;99.90
13817;DHT22;6979;52.116;5.286;2023-07-13T06:26:31;21.00;99.90
13817;DHT22;6979;52.116;5.286;2023-07-13T06:28:59;21.10;99.90
13817;DHT22;6979;52.116;5.286;2023-07-13T06:31:29;21.20;99.90
13817;DHT22;6979;52.116;5.286;2023-07-13T06:33:59;21.20;99.90
13817;DHT22;6979;52.116;5.286;2023-07-13T06:36:26;21.30;99.90
13817;DHT22;6979;52.116;5.286;2023-07-13T06:38:54;21.30;99.90
13817;DHT22;6979;52.116;5.286;2023-07-13T06:41:22;21.40;99.90
13817;DHT22;6979;52.116;5.286;2023-07-13T06:43:52;21.50;99.90
13817;DHT22;6979;52.116;5.286;2023-07-13T06:46:23;21.50;99.90
13817;DHT22;6979;52.116;5.286;2023-07-13T06:48:50;21.60;99.90
13817;DHT22;6979;52.116;5.286;2023-07-13T06:51:17;21.60;99.90
13817;DHT22;6979;52.116;5.286;2023-07-13T06:53:45;21.70;99.90
13817;DHT22;6979;52.116;5.286;2023-07-13T06:56:12;21.70;99.90
13817;DHT22;6979;52.116;5.286;2023-07-13T06:58:41;21.70;99.90
13817;DHT22;6979;52.116;5.286;2023-07-13T07:01:09;21.80;99.90
13817;DHT22;6979;52.116;5.286;2023-07-13T07:03:36;21.90;99.90
13817;DHT22;6979;52.116;5.286;2023-07-13T07:06:12;21.90;99.90
13817;DHT22;6979;52.116;5.286;2023-07-13T07:08:40;22.00;99.90
13817;DHT22;6979;52.116;5.286;2023-07-13T07:11:08;22.00;99.90
13817;DHT22;6979;52.116;5.286;2023-07-13T07:13:36;22.00;99.90
13817;DHT22;6979;52.116;5.286;2023-07-13T07:16:04;22.00;99.90
13817;DHT22;6979;52.116;5.286;2023-07-13T07:25:29;22.00;99.90
13817;DHT22;6979;52.116;5.286;2023-07-13T07:27:58;22.10;99.90
13817;DHT22;6979;52.116;5.286;2023-07-13T07:30:25;22.00;99.90
13817;DHT22;6979;52.116;5.286;2023-07-13T07:32:54;22.00;99.90
13817;DHT22;6979;52.116;5.286;2023-07-13T07:35:21;21.90;99.90
13817;DHT22;6979;52.116;5.286;2023-07-13T07:37:48;21.90;99.90
13817;DHT22;6979;52.116;5.286;2023-07-13T07:40:15;21.80;99.90
13817;DHT22;6979;52.116;5.286;2023-07-13T07:42:42;21.80;99.90
13817;DHT22;6979;52.116;5.286;2023-07-13T07:45:10;21.80;99.90
13817;DHT22;6979;52.116;5.286;2023-07-13T07:47:37;21.80;99.90
13817;DHT22;6979;52.116;5.286;2023-07-13T07:50:07;21.70;99.90
13817;DHT22;6979;52.116;5.286;2023-07-13T07:52:34;21.70;99.90
13817;DHT22;6979;52.116;5.286;2023-07-13T07:55:01;21.70;99.90
13817;DHT22;6979;52.116;5.286;2023-07-13T07:57:28;21.80;99.90
13817;DHT22;6979;52.116;5.286;2023-07-13T07:59:55;21.80;99.90
13817;DHT22;6979;52.116;5.286;2023-07-13T08:02:23;21.90;99.90
13817;DHT22;6979;52.116;5.286;2023-07-13T08:04:51;21.90;99.90
13817;DHT22;6979;52.116;5.286;2023-07-13T08:07:21;22.00;99.90
13817;DHT22;6979;52.116;5.286;2023-07-13T08:09:52;22.10;99.90
13817;DHT22;6979;52.116;5.286;2023-07-13T08:12:19;22.10;99.90
13817;DHT22;6979;52.116;5.286;2023-07-13T08:14:49;22.20;99.90
13817;DHT22;6979;52.116;5.286;2023-07-13T08:17:19;22.20;99.90
13817;DHT22;6979;52.116;5.286;2023-07-13T08:19:46;22.30;99.90
13817;DHT22;6979;52.116;5.286;2023-07-13T08:22:13;22.30;99.90
13817;DHT22;6979;52.116;5.286;2023-07-13T08:24:42;22.40;99.90
13817;DHT22;6979;52.116;5.286;2023-07-13T08:27:10;22.40;99.90
13817;DHT22;6979;52.116;5.286;2023-07-13T08:29:38;22.50;99.90
13817;DHT22;6979;52.116;5.286;2023-07-13T08:32:06;22.60;99.90
13817;DHT22;6979;52.116;5.286;2023-07-13T08:34:37;22.70;99.90
13817;DHT22;6979;52.116;5.286;2023-07-13T08:37:05;22.80;99.90
13817;DHT22;6979;52.116;5.286;2023-07-13T08:39:32;22.80;99.90
13817;DHT22;6979;52.116;5.286;2023-07-13T08:42:05;22.80;99.90
13817;DHT22;6979;52.116;5.286;2023-07-13T08:44:46;22.90;99.90
13817;DHT22;6979;52.116;5.286;2023-07-13T08:47:21;22.90;99.90
13817;DHT22;6979;52.116;5.286;2023-07-13T08:49:49;22.90;99.90
13817;DHT22;6979;52.116;5.286;2023-07-13T08:52:26;22.80;99.90
13817;DHT22;6979;52.116;5.286;2023-07-13T08:54:58;22.80;99.90
13817;DHT22;6979;52.116;5.286;2023-07-13T08:57:33;22.70;99.90
13817;DHT22;6979;52.116;5.286;2023-07-13T09:00:01;22.60;99.90
13817;DHT22;6979;52.116;5.286;2023-07-13T09:02:41;22.50;99.90
13817;DHT22;6979;52.116;5.286;2023-07-13T09:05:12;22.40;99.90
13817;DHT22;6979;52.116;5.286;2023-07-13T09:08:09;22.40;99.90
13817;DHT22;6979;52.116;5.286;2023-07-13T09:10:43;22.40;99.90
13817;DHT22;6979;52.116;5.286;2023-07-13T09:13:22;22.40;99.90
13817;DHT22;6979;52.116;5.286;2023-07-13T09:15:56;22.40;99.90
13817;DHT22;6979;52.116;5.286;2023-07-13T09:18:27;22.40;99.90
13817;DHT22;6979;52.116;5.286;2023-07-13T09:20:58;22.40;99.90
13817;DHT22;6979;52.116;5.286;2023-07-13T09:23:29;22.30;99.90
13817;DHT22;6979;52.116;5.286;2023-07-13T09:26:01;22.40;99.90
13817;DHT22;6979;52.116;5.286;2023-07-13T09:28:40;22.40;99.90
13817;DHT22;6979;52.116;5.286;2023-07-13T09:31:13;22.50;99.90
13817;DHT22;6979;52.116;5.286;2023-07-13T09:33:40;22.60;99.90
13817;DHT22;6979;52.116;5.286;2023-07-13T09:36:20;22.80;99.90
13817;DHT22;6979;52.116;5.286;2023-07-13T09:38:51;23.00;99.90
13817;DHT22;6979;52.116;5.286;2023-07-13T09:41:23;23.00;99.90
13817;DHT22;6979;52.116;5.286;2023-07-13T09:44:12;23.10;99.90
13817;DHT22;6979;52.116;5.286;2023-07-13T09:46:43;23.20;99.90
13817;DHT22;6979;52.116;5.286;2023-07-13T09:49:13;23.20;99.90
13817;DHT22;6979;52.116;5.286;2023-07-13T09:51:42;23.20;99.90
13817;DHT22;6979;52.116;5.286;2023-07-13T09:54:18;23.00;99.90
13817;DHT22;6979;52.116;5.286;2023-07-13T09:56:46;22.80;99.90
13817;DHT22;6979;52.116;5.286;2023-07-13T09:59:22;22.70;99.90
13817;DHT22;6979;52.116;5.286;2023-07-13T10:01:50;22.80;99.90
13817;DHT22;6979;52.116;5.286;2023-07-13T10:04:19;23.00;99.90
13817;DHT22;6979;52.116;5.286;2023-07-13T10:06:47;23.40;99.90
13817;DHT22;6979;52.116;5.286;2023-07-13T10:09:16;23.70;99.90
13817;DHT22;6979;52.116;5.286;2023-07-13T10:11:46;24.10;99.90
13817;DHT22;6979;52.116;5.286;2023-07-13T10:14:15;24.40;99.90
13817;DHT22;6979;52.116;5.286;2023-07-13T10:16:45;24.60;99.90
13817;DHT22;6979;52.116;5.286;2023-07-13T10:19:19;24.60;99.90
13817;DHT22;6979;52.116;5.286;2023-07-13T10:21:53;24.80;99.90
13817;DHT22;6979;52.116;5.286;2023-07-13T10:24:22;25.00;99.90
13817;DHT22;6979;52.116;5.286;2023-07-13T10:26:55;25.20;99.90
13817;DHT22;6979;52.116;5.286;2023-07-13T10:29:25;25.40;99.90
13817;DHT22;6979;52.116;5.286;2023-07-13T10:31:54;25.40;99.90
13817;DHT22;6979;52.116;5.286;2023-07-13T10:34:23;25.40;99.90
13817;DHT22;6979;52.116;5.286;2023-07-13T10:36:51;25.30;99.90
13817;DHT22;6979;52.116;5.286;2023-07-13T10:39:21;25.20;99.90
13817;DHT22;6979;52.116;5.286;2023-07-13T10:41:53;25.10;99.90
13817;DHT22;6979;52.116;5.286;2023-07-13T10:44:23;25.00;99.90
13817;DHT22;6979;52.116;5.286;2023-07-13T10:46:58;25.10;99.90
13817;DHT22;6979;52.116;5.286;2023-07-13T10:49:27;25.30;99.90
13817;DHT22;6979;52.116;5.286;2023-07-13T10:51:55;25.40;99.90
13817;DHT22;6979;52.116;5.286;2023-07-13T10:54:28;25.60;99.90
13817;DHT22;6979;52.116;5.286;2023-07-13T10:57:16;25.90;99.90
13817;DHT22;6979;52.116;5.286;2023-07-13T10:59:47;26.20;99.90
13817;DHT22;6979;52.116;5.286;2023-07-13T11:02:23;26.40;99.90
13817;DHT22;6979;52.116;5.286;2023-07-13T11:04:53;26.60;99.90
13817;DHT22;6979;52.116;5.286;2023-07-13T11:07:22;26.90;99.90
13817;DHT22;6979;52.116;5.286;2023-07-13T11:09:51;27.10;99.90
13817;DHT22;6979;52.116;5.286;2023-07-13T11:12:49;27.40;99.90
13817;DHT22;6979;52.116;5.286;2023-07-13T11:15:30;27.70;99.90
13817;DHT22;6979;52.116;5.286;2023-07-13T11:18:03;27.90;99.90
13817;DHT22;6979;52.116;5.286;2023-07-13T11:20:36;28.00;99.90
13817;DHT22;6979;52.116;5.286;2023-07-13T11:23:17;28.00;99.90
13817;DHT22;6979;52.116;5.286;2023-07-13T11:25:44;28.00;99.90
13817;DHT22;6979;52.116;5.286;2023-07-13T11:28:17;28.00;99.90
13817;DHT22;6979;52.116;5.286;2023-07-13T11:30:47;27.80;99.90
13817;DHT22;6979;52.116;5.286;2023-07-13T11:33:19;27.60;99.90
13817;DHT22;6979;52.116;5.286;2023-07-13T11:35:56;27.30;99.90
13817;DHT22;6979;52.116;5.286;2023-07-13T11:38:30;27.10;99.90
13817;DHT22;6979;52.116;5.286;2023-07-13T11:41:01;26.90;99.90
13817;DHT22;6979;52.116;5.286;2023-07-13T11:43:30;26.60;99.90
13817;DHT22;6979;52.116;5.286;2023-07-13T11:46:12;26.40;99.90
13817;DHT22;6979;52.116;5.286;2023-07-13T11:48:41;26.20;99.90
13817;DHT22;6979;52.116;5.286;2023-07-13T11:51:19;26.00;99.90
13817;DHT22;6979;52.116;5.286;2023-07-13T11:53:51;25.80;99.90
13817;DHT22;6979;52.116;5.286;2023-07-13T11:56:18;25.70;99.90
13817;DHT22;6979;52.116;5.286;2023-07-13T11:58:49;25.60;99.90
13817;DHT22;6979;52.116;5.286;2023-07-13T12:01:21;25.40;99.90
13817;DHT22;6979;52.116;5.286;2023-07-13T12:03:49;25.30;99.90
13817;DHT22;6979;52.116;5.286;2023-07-13T12:06:26;25.20;99.90
13817;DHT22;6979;52.116;5.286;2023-07-13T12:08:56;25.20;99.90
13817;DHT22;6979;52.116;5.286;2023-07-13T12:11:24;25.10;99.90
13817;DHT22;6979;52.116;5.286;2023-07-13T12:13:54;25.10;99.90
13817;DHT22;6979;52.116;5.286;2023-07-13T12:16:28;25.00;99.90
13817;DHT22;6979;52.116;5.286;2023-07-13T12:19:00;24.90;99.90
13817;DHT22;6979;52.116;5.286;2023-07-13T12:21:32;24.90;99.90
13817;DHT22;6979;52.116;5.286;2023-07-13T12:24:01;24.90;99.90
13817;DHT22;6979;52.116;5.286;2023-07-13T12:26:30;24.90;99.90
13817;DHT22;6979;52.116;5.286;2023-07-13T12:28:59;24.90;99.90
13817;DHT22;6979;52.116;5.286;2023-07-13T12:31:33;24.90;99.90
13817;DHT22;6979;52.116;5.286;2023-07-13T12:34:12;24.90;99.90
13817;DHT22;6979;52.116;5.286;2023-07-13T12:36:45;25.00;99.90
13817;DHT22;6979;52.116;5.286;2023-07-13T12:39:16;25.10;99.90
13817;DHT22;6979;52.116;5.286;2023-07-13T12:41:46;25.20;99.90
13817;DHT22;6979;52.116;5.286;2023-07-13T12:44:16;25.20;99.90
13817;DHT22;6979;52.116;5.286;2023-07-13T12:46:57;25.30;99.90
13817;DHT22;6979;52.116;5.286;2023-07-13T12:49:30;25.40;99.90
13817;DHT22;6979;52.116;5.286;2023-07-13T12:52:02;25.40;99.90
13817;DHT22;6979;52.116;5.286;2023-07-13T12:54:30;25.50;99.90
13817;DHT22;6979;52.116;5.286;2023-07-13T12:57:00;25.60;99.90
13817;DHT22;6979;52.116;5.286;2023-07-13T12:59:32;25.60;99.90
13817;DHT22;6979;52.116;5.286;2023-07-13T13:02:21;25.70;99.90
13817;DHT22;6979;52.116;5.286;2023-07-13T13:04:50;25.80;99.90
13817;DHT22;6979;52.116;5.286;2023-07-13T13:07:18;25.90;99.90
13817;DHT22;6979;52.116;5.286;2023-07-13T13:09:45;26.00;99.90
13817;DHT22;6979;52.116;5.286;2023-07-13T13:12:13;26.10;99.90
13817;DHT22;6979;52.116;5.286;2023-07-13T13:14:41;26.20;99.90
13817;DHT22;6979;52.116;5.286;2023-07-13T13:17:18;26.30;99.90
13817;DHT22;6979;52.116;5.286;2023-07-13T13:19:46;26.40;99.90
13817;DHT22;6979;52.116;5.286;2023-07-13T13:22:14;26.60;99.90
13817;DHT22;6979;52.116;5.286;2023-07-13T13:24:42;26.80;99.90
13817;DHT22;6979;52.116;5.286;2023-07-13T13:27:17;27.00;99.90
13817;DHT22;6979;52.116;5.286;2023-07-13T13:29:46;27.20;98.90
13817;DHT22;6979;52.116;5.286;2023-07-13T13:32:15;27.30;98.70
13817;DHT22;6979;52.116;5.286;2023-07-13T13:34:43;27.40;98.50
13817;DHT22;6979;52.116;5.286;2023-07-13T13:37:19;27.50;98.30
13817;DHT22;6979;52.116;5.286;2023-07-13T13:39:46;27.60;97.40
13817;DHT22;6979;52.116;5.286;2023-07-13T13:42:13;27.60;97.40
13817;DHT22;6979;52.116;5.286;2023-07-13T13:44:41;27.70;97.10
13817;DHT22;6979;52.116;5.286;2023-07-13T13:47:22;27.70;96.40
13817;DHT22;6979;52.116;5.286;2023-07-13T13:49:51;27.70;96.20
13817;DHT22;6979;52.116;5.286;2023-07-13T13:52:20;27.70;96.20
13817;DHT22;6979;52.116;5.286;2023-07-13T13:54:47;27.70;96.30
13817;DHT22;6979;52.116;5.286;2023-07-13T13:57:14;27.80;96.10
13817;DHT22;6979;52.116;5.286;2023-07-13T13:59:41;27.80;95.30
13817;DHT22;6979;52.116;5.286;2023-07-13T14:02:22;27.80;94.80
13817;DHT22;6979;52.116;5.286;2023-07-13T14:04:53;27.70;94.60
13817;DHT22;6979;52.116;5.286;2023-07-13T14:07:22;27.60;94.90
13817;DHT22;6979;52.116;5.286;2023-07-13T14:09:49;27.60;95.00
13817;DHT22;6979;52.116;5.286;2023-07-13T14:12:16;27.50;95.10
13817;DHT22;6979;52.116;5.286;2023-07-13T14:14:44;27.40;95.00
13817;DHT22;6979;52.116;5.286;2023-07-13T14:17:20;27.40;95.20
13817;DHT22;6979;52.116;5.286;2023-07-13T14:19:49;27.30;95.00
13817;DHT22;6979;52.116;5.286;2023-07-13T14:22:24;27.30;95.30
13817;DHT22;6979;52.116;5.286;2023-07-13T14:24:52;27.30;95.30
13817;DHT22;6979;52.116;5.286;2023-07-13T14:27:20;27.30;95.20
13817;DHT22;6979;52.116;5.286;2023-07-13T14:29:53;27.30;95.10
13817;DHT22;6979;52.116;5.286;2023-07-13T14:32:22;27.30;94.50
13817;DHT22;6979;52.116;5.286;2023-07-13T14:34:50;27.30;94.70
13817;DHT22;6979;52.116;5.286;2023-07-13T14:37:18;27.30;94.70
13817;DHT22;6979;52.116;5.286;2023-07-13T14:39:52;27.20;94.60
13817;DHT22;6979;52.116;5.286;2023-07-13T14:42:20;27.20;94.70
13817;DHT22;6979;52.116;5.286;2023-07-13T14:44:50;27.20;95.10
13817;DHT22;6979;52.116;5.286;2023-07-13T14:47:18;27.20;95.30
13817;DHT22;6979;52.116;5.286;2023-07-13T14:49:45;27.10;95.10
13817;DHT22;6979;52.116;5.286;2023-07-13T14:52:16;27.10;95.00
13817;DHT22;6979;52.116;5.286;2023-07-13T14:54:44;27.20;95.20
13817;DHT22;6979;52.116;5.286;2023-07-13T14:57:14;27.10;95.40
13817;DHT22;6979;52.116;5.286;2023-07-13T14:59:42;27.20;95.40
13817;DHT22;6979;52.116;5.286;2023-07-13T15:02:16;27.20;95.50
13817;DHT22;6979;52.116;5.286;2023-07-13T15:04:44;27.20;95.10
13817;DHT22;6979;52.116;5.286;2023-07-13T15:07:12;27.20;95.20
13817;DHT22;6979;52.116;5.286;2023-07-13T15:09:43;27.20;95.40
13817;DHT22;6979;52.116;5.286;2023-07-13T15:12:10;27.20;95.60
13817;DHT22;6979;52.116;5.286;2023-07-13T15:14:39;27.30;95.80
13817;DHT22;6979;52.116;5.286;2023-07-13T15:17:19;27.30;95.60
13817;DHT22;6979;52.116;5.286;2023-07-13T15:19:48;27.30;94.70
13817;DHT22;6979;52.116;5.286;2023-07-13T15:22:15;27.30;95.50
13817;DHT22;6979;52.116;5.286;2023-07-13T15:24:42;27.40;95.50
13817;DHT22;6979;52.116;5.286;2023-07-13T15:27:11;27.40;95.50
13817;DHT22;6979;52.116;5.286;2023-07-13T15:29:40;27.50;95.00
13817;DHT22;6979;52.116;5.286;2023-07-13T15:32:12;27.50;94.80
13817;DHT22;6979;52.116;5.286;2023-07-13T15:34:40;27.60;94.50
13817;DHT22;6979;52.116;5.286;2023-07-13T15:37:12;27.60;94.60
13817;DHT22;6979;52.116;5.286;2023-07-13T15:39:40;27.60;94.10
13817;DHT22;6979;52.116;5.286;2023-07-13T15:42:12;27.50;94.20
13817;DHT22;6979;52.116;5.286;2023-07-13T15:44:42;27.50;94.00
13817;DHT22;6979;52.116;5.286;2023-07-13T15:47:11;27.50;93.60
13817;DHT22;6979;52.116;5.286;2023-07-13T15:49:40;27.50;93.80
13817;DHT22;6979;52.116;5.286;2023-07-13T15:52:13;27.50;94.00
13817;DHT22;6979;52.116;5.286;2023-07-13T15:54:43;27.60;93.80
13817;DHT22;6979;52.116;5.286;2023-07-13T15:57:11;27.60;93.90
13817;DHT22;6979;52.116;5.286;2023-07-13T15:59:38;27.60;93.50
13817;DHT22;6979;52.116;5.286;2023-07-13T16:02:14;27.60;93.30
13817;DHT22;6979;52.116;5.286;2023-07-13T16:04:43;27.60;92.90
13817;DHT22;6979;52.116;5.286;2023-07-13T16:07:11;27.60;93.60
13817;DHT22;6979;52.116;5.286;2023-07-13T16:09:40;27.70;93.70